createdAt,value
2022-09-15T00:00:28.410Z,19.42
2022-09-15T00:02:54.965Z,19.43
2022-09-15T00:05:21.592Z,19.25
2022-09-15T00:07:48.368Z,19.27
2022-09-15T00:10:15.063Z,19.34
2022-09-15T00:12:41.639Z,19.34
2022-09-15T00:15:12.050Z,19.26
2022-09-15T00:17:38.577Z,18.83
2022-09-15T00:20:07.050Z,18.94
2022-09-15T00:22:33.674Z,19.03
2022-09-15T00:25:00.199Z,19.10
2022-09-15T00:27:26.725Z,19.05
2022-09-15T00:29:53.295Z,19.03
2022-09-15T00:32:19.808Z,18.87
2022-09-15T00:34:46.346Z,19.02
2022-09-15T00:37:13.014Z,18.94
2022-09-15T00:39:39.675Z,18.95
2022-09-15T00:42:06.301Z,19.00
2022-09-15T00:44:35.619Z,19.06
2022-09-15T00:47:18.627Z,18.97
2022-09-15T00:49:48.423Z,18.90
2022-09-15T00:52:25.314Z,18.79
2022-09-15T00:55:00.694Z,18.93
2022-09-15T00:57:44.370Z,18.84
2022-09-15T01:00:14.504Z,19.00
2022-09-15T01:02:43.169Z,18.90
2022-09-15T01:05:12.617Z,18.82
2022-09-15T01:07:44.604Z,18.78
2022-09-15T01:10:15.907Z,18.70
2022-09-15T01:12:42.786Z,18.52
2022-09-15T01:15:09.379Z,18.70
2022-09-15T01:17:50.666Z,18.59
2022-09-15T01:20:40.358Z,18.72
2022-09-15T01:23:23.788Z,18.81
2022-09-15T01:26:25.368Z,18.74
2022-09-15T01:29:06.756Z,18.80
2022-09-15T01:32:05.534Z,18.80
2022-09-15T01:34:44.750Z,18.86
2022-09-15T01:37:20.229Z,18.87
2022-09-15T01:39:51.470Z,18.95
2022-09-15T01:42:18.549Z,18.90
2022-09-15T01:45:00.090Z,18.70
2022-09-15T01:47:29.442Z,18.64
2022-09-15T01:50:05.947Z,18.75
2022-09-15T01:52:33.608Z,18.80
2022-09-15T01:55:07.733Z,18.82
2022-09-15T01:57:34.327Z,18.57
2022-09-15T02:00:01.142Z,18.48
2022-09-15T02:02:37.745Z,18.44
2022-09-15T02:05:20.704Z,18.57
2022-09-15T02:07:58.973Z,18.67
2022-09-15T02:10:55.897Z,18.68
2022-09-15T02:13:34.045Z,18.76
2022-09-15T02:16:00.893Z,18.84
2022-09-15T02:18:45.219Z,18.77
2022-09-15T02:21:40.468Z,18.94
2022-09-15T02:24:19.119Z,18.69
2022-09-15T02:26:49.462Z,18.73
2022-09-15T02:29:19.302Z,18.67
2022-09-15T02:31:47.509Z,18.65
2022-09-15T02:34:21.060Z,18.38
2022-09-15T02:36:49.890Z,18.68
2022-09-15T02:39:19.966Z,18.46
2022-09-15T02:41:46.928Z,18.45
2022-09-15T02:44:13.687Z,18.64
2022-09-15T02:46:40.514Z,18.59
2022-09-15T02:49:07.661Z,18.49
2022-09-15T02:51:34.223Z,18.75
2022-09-15T02:54:00.763Z,18.69
2022-09-15T02:56:27.303Z,18.71
2022-09-15T02:58:53.865Z,18.92
2022-09-15T03:01:20.506Z,19.07
2022-09-15T03:03:47.180Z,19.31
2022-09-15T03:06:17.420Z,19.16
2022-09-15T03:09:05.205Z,19.14
2022-09-15T03:11:32.499Z,19.07
2022-09-15T03:14:01.733Z,19.07
2022-09-15T03:16:30.956Z,19.06
2022-09-15T03:18:59.476Z,18.72
2022-09-15T03:21:27.497Z,18.66
2022-09-15T03:23:54.054Z,18.69
2022-09-15T03:26:20.612Z,18.64
2022-09-15T03:28:47.196Z,18.79
2022-09-15T03:31:13.850Z,18.73
2022-09-15T03:33:40.436Z,18.82
2022-09-15T03:36:07.658Z,18.64
2022-09-15T03:38:34.211Z,18.61
2022-09-15T03:41:07.668Z,18.65
2022-09-15T03:43:35.401Z,18.66
2022-09-15T03:46:04.526Z,18.65
2022-09-15T03:48:32.837Z,18.84
2022-09-15T03:50:59.839Z,18.87
2022-09-15T03:53:26.594Z,18.71
2022-09-15T03:55:53.522Z,18.72
2022-09-15T03:58:20.108Z,18.63
2022-09-15T04:00:47.031Z,18.47
2022-09-15T04:03:13.909Z,18.31
2022-09-15T04:05:41.904Z,18.33
2022-09-15T04:08:12.011Z,18.45
2022-09-15T04:10:39.658Z,18.33
2022-09-15T04:13:06.309Z,18.33
2022-09-15T04:15:32.841Z,18.25
2022-09-15T04:17:59.721Z,18.10
2022-09-15T04:20:26.343Z,18.17
2022-09-15T04:22:52.925Z,18.09
2022-09-15T04:25:19.518Z,18.14
2022-09-15T04:27:46.212Z,18.10
2022-09-15T04:30:12.888Z,18.12
2022-09-15T04:32:39.737Z,18.11
2022-09-15T04:35:06.731Z,17.93
2022-09-15T04:37:33.366Z,17.85
2022-09-15T04:40:00.010Z,18.03
2022-09-15T04:42:27.406Z,18.01
2022-09-15T04:44:53.940Z,18.01
2022-09-15T04:47:20.730Z,18.18
2022-09-15T04:49:47.302Z,18.28
2022-09-15T04:52:13.856Z,18.20
2022-09-15T04:54:40.461Z,18.24
2022-09-15T04:57:07.072Z,18.42
2022-09-15T04:59:33.713Z,18.39
2022-09-15T05:02:00.385Z,18.54
2022-09-15T05:04:27.101Z,18.60
2022-09-15T05:06:54.943Z,18.45
2022-09-15T05:09:21.577Z,18.24
2022-09-15T05:11:48.133Z,18.42
2022-09-15T05:14:14.681Z,18.23
2022-09-15T05:16:41.346Z,18.21
2022-09-15T05:19:10.159Z,18.15
2022-09-15T05:21:36.685Z,17.88
2022-09-15T05:24:03.485Z,17.82
2022-09-15T05:26:30.135Z,17.88
2022-09-15T05:28:57.627Z,17.82
2022-09-15T05:31:27.333Z,17.70
2022-09-15T05:33:54.770Z,17.61
2022-09-15T05:36:25.063Z,17.68
2022-09-15T05:38:53.700Z,17.59
2022-09-15T05:41:20.812Z,17.39
2022-09-15T05:43:48.795Z,17.36
2022-09-15T05:46:17.347Z,17.15
2022-09-15T05:48:44.992Z,17.46
2022-09-15T05:51:12.035Z,17.38
2022-09-15T05:53:39.328Z,17.44
2022-09-15T05:56:09.895Z,17.40
2022-09-15T05:58:39.502Z,17.53
2022-09-15T06:01:08.627Z,17.44
2022-09-15T06:03:35.886Z,17.32
2022-09-15T06:06:04.245Z,17.46
2022-09-15T06:08:36.366Z,17.50
2022-09-15T06:11:09.056Z,17.71
2022-09-15T06:13:36.959Z,17.70
2022-09-15T06:16:09.388Z,17.83
2022-09-15T06:18:37.703Z,17.98
2022-09-15T06:21:12.759Z,17.95
2022-09-15T06:23:40.345Z,18.02
2022-09-15T06:26:09.752Z,17.66
2022-09-15T06:28:36.460Z,17.87
2022-09-15T06:31:03.651Z,17.98
2022-09-15T06:33:30.251Z,18.06
2022-09-15T06:35:56.922Z,17.77
2022-09-15T06:38:23.463Z,17.78
2022-09-15T06:40:58.130Z,17.99
2022-09-15T06:43:25.251Z,18.04
2022-09-15T06:45:52.266Z,17.85
2022-09-15T06:48:24.873Z,18.07
2022-09-15T06:50:55.654Z,18.13
2022-09-15T06:53:22.708Z,18.13
2022-09-15T06:55:49.837Z,18.07
2022-09-15T06:58:16.607Z,18.18
2022-09-15T07:00:43.214Z,18.31
2022-09-15T07:03:09.867Z,18.21
2022-09-15T07:05:36.641Z,18.26
2022-09-15T07:08:03.298Z,18.41
2022-09-15T07:10:29.882Z,18.55
2022-09-15T07:12:56.500Z,18.63
2022-09-15T07:15:24.901Z,18.49
2022-09-15T07:17:51.465Z,18.47
2022-09-15T07:20:17.987Z,18.46
2022-09-15T07:22:44.507Z,18.48
2022-09-15T07:25:11.064Z,18.47
2022-09-15T07:27:37.591Z,18.31
2022-09-15T07:30:08.471Z,18.47
2022-09-15T07:32:35.111Z,18.53
2022-09-15T07:35:02.308Z,18.61
2022-09-15T07:37:28.893Z,18.39
2022-09-15T07:39:55.545Z,18.64
2022-09-15T07:42:22.125Z,18.52
2022-09-15T07:44:48.677Z,18.60
2022-09-15T07:47:15.190Z,18.59
2022-09-15T07:49:42.169Z,18.67
2022-09-15T07:52:08.975Z,18.69
2022-09-15T07:54:35.881Z,18.64
2022-09-15T07:57:02.501Z,18.62
2022-09-15T07:59:29.053Z,18.71
2022-09-15T08:01:55.677Z,18.68
2022-09-15T08:04:22.288Z,18.61
2022-09-15T08:06:48.876Z,18.47
2022-09-15T08:09:17.621Z,18.38
2022-09-15T08:11:44.416Z,18.27
2022-09-15T08:14:10.996Z,18.46
2022-09-15T08:16:38.579Z,18.11
2022-09-15T08:19:05.357Z,18.27
2022-09-15T08:21:31.949Z,18.13
2022-09-15T08:23:59.995Z,18.11
2022-09-15T08:26:28.398Z,18.23
2022-09-15T08:28:54.936Z,17.95
2022-09-15T08:31:23.956Z,18.12
2022-09-15T08:33:53.023Z,18.15
2022-09-15T08:36:20.234Z,17.93
2022-09-15T08:38:47.030Z,18.01
2022-09-15T08:41:25.639Z,18.19
2022-09-15T08:43:57.526Z,17.99
2022-09-15T08:46:32.572Z,18.25
2022-09-15T08:49:06.895Z,18.46
2022-09-15T08:51:44.804Z,18.44
2022-09-15T08:54:18.539Z,18.46
2022-09-15T08:56:45.623Z,18.31
2022-09-15T08:59:14.863Z,18.42
2022-09-15T09:02:19.042Z,18.43
2022-09-15T09:05:16.423Z,18.54
2022-09-15T09:08:09.959Z,18.51
2022-09-15T09:10:54.656Z,18.67
2022-09-15T09:13:35.273Z,18.82
2022-09-15T09:16:11.201Z,18.86
2022-09-15T09:18:58.150Z,18.98
2022-09-15T09:21:31.048Z,18.96
2022-09-15T09:24:06.944Z,18.87
2022-09-15T09:26:36.401Z,18.85
2022-09-15T09:29:12.657Z,18.86
2022-09-15T09:31:40.771Z,18.86
2022-09-15T09:34:15.769Z,18.99
2022-09-15T09:36:42.772Z,18.93
2022-09-15T09:39:15.080Z,18.94
2022-09-15T09:41:42.389Z,18.85
2022-09-15T09:44:14.654Z,18.92
2022-09-15T09:46:41.758Z,18.98
2022-09-15T09:49:18.394Z,18.85
2022-09-15T09:52:02.123Z,19.02
2022-09-15T09:54:31.076Z,19.11
2022-09-15T09:57:22.740Z,19.11
2022-09-15T09:59:50.880Z,19.19
2022-09-15T10:02:19.131Z,19.29
2022-09-15T10:05:08.621Z,19.29
2022-09-15T10:07:43.560Z,19.42
2022-09-15T10:10:20.869Z,19.46
2022-09-15T10:12:48.096Z,19.58
2022-09-15T10:15:23.053Z,19.51
2022-09-15T10:17:51.169Z,19.42
2022-09-15T10:20:32.156Z,19.38
2022-09-15T10:23:04.364Z,19.46
2022-09-15T10:25:57.606Z,19.39
2022-09-15T10:28:26.131Z,19.45
2022-09-15T10:31:03.791Z,19.50
2022-09-15T10:33:35.978Z,19.61
2022-09-15T10:36:07.071Z,19.63
2022-09-15T10:38:53.361Z,19.74
2022-09-15T10:41:42.315Z,19.69
2022-09-15T10:44:20.893Z,19.77
2022-09-15T10:47:11.943Z,19.87
2022-09-15T10:50:07.252Z,19.83
2022-09-15T10:53:10.937Z,19.96
2022-09-15T10:55:52.591Z,19.84
2022-09-15T10:58:55.780Z,19.83
2022-09-15T11:01:28.258Z,19.83
2022-09-15T11:04:12.884Z,19.79
2022-09-15T11:06:54.914Z,19.68
2022-09-15T11:09:25.920Z,19.60
2022-09-15T11:12:04.519Z,19.64
2022-09-15T11:14:58.392Z,19.72
2022-09-15T11:17:55.139Z,19.66
2022-09-15T11:20:59.567Z,19.46
2022-09-15T11:23:35.100Z,19.57
2022-09-15T11:26:13.865Z,19.57
2022-09-15T11:28:50.390Z,19.68
2022-09-15T11:31:24.272Z,19.48
2022-09-15T11:33:55.170Z,19.49
2022-09-15T11:36:43.283Z,19.44
2022-09-15T11:39:20.588Z,19.43
2022-09-15T11:41:56.414Z,19.29
2022-09-15T11:44:39.184Z,19.32
2022-09-15T11:47:09.924Z,19.36
2022-09-15T11:49:51.544Z,19.40
2022-09-15T11:52:39.568Z,19.39
2022-09-15T11:55:18.222Z,19.15
2022-09-15T11:57:50.875Z,19.27
2022-09-15T12:00:17.543Z,19.09
2022-09-15T12:03:07.281Z,19.08
2022-09-15T12:05:43.155Z,18.97
2022-09-15T12:08:24.629Z,19.00
2022-09-15T12:10:55.486Z,19.09
2022-09-15T12:13:25.021Z,19.03
2022-09-15T12:15:53.507Z,19.07
2022-09-15T12:18:40.799Z,19.15
2022-09-15T12:21:45.666Z,19.32
2022-09-15T12:24:22.782Z,19.50
2022-09-15T12:26:49.995Z,19.50
2022-09-15T12:29:22.446Z,19.79
2022-09-15T12:31:49.023Z,19.85
2022-09-15T12:34:35.558Z,19.52
2022-09-15T12:37:12.588Z,19.36
2022-09-15T12:39:43.302Z,18.70
2022-09-15T12:42:31.180Z,18.26
2022-09-15T12:45:22.585Z,18.49
2022-09-15T12:47:51.633Z,18.16
2022-09-15T12:50:37.794Z,18.42
2022-09-15T12:53:23.446Z,18.65
2022-09-15T12:56:16.585Z,18.99
2022-09-15T12:58:49.388Z,18.94
2022-09-15T13:01:19.384Z,18.69
2022-09-15T13:03:46.419Z,18.86
2022-09-15T13:06:26.249Z,18.61
2022-09-15T13:09:01.877Z,18.30
2022-09-15T13:11:37.554Z,18.79
2022-09-15T13:14:04.433Z,19.00
2022-09-15T13:16:53.782Z,18.20
2022-09-15T13:19:41.495Z,17.98
2022-09-15T13:22:11.175Z,18.43
2022-09-15T13:25:08.860Z,18.31
2022-09-15T13:27:40.358Z,18.32
2022-09-15T13:30:29.083Z,17.94
2022-09-15T13:33:17.503Z,18.37
2022-09-15T13:35:59.213Z,18.49
2022-09-15T13:38:50.137Z,17.88
2022-09-15T13:41:34.065Z,17.94
2022-09-15T13:44:10.246Z,17.98
2022-09-15T13:47:01.569Z,18.26
2022-09-15T13:49:43.187Z,18.71
2022-09-15T13:52:18.757Z,18.72
2022-09-15T13:55:26.313Z,18.30
2022-09-15T14:00:56.037Z,18.45
2022-09-15T14:03:28.574Z,18.05
2022-09-15T14:05:56.277Z,18.00
2022-09-15T14:08:33.393Z,17.90
2022-09-15T14:11:04.353Z,17.90
2022-09-15T14:13:31.469Z,17.90
2022-09-15T14:16:02.967Z,17.91
2022-09-15T14:18:31.352Z,18.15
2022-09-15T14:21:03.123Z,18.29
2022-09-15T14:23:30.604Z,18.20
2022-09-15T14:26:00.285Z,18.03
2022-09-15T14:28:32.197Z,18.03
2022-09-15T14:31:02.666Z,17.96
2022-09-15T14:33:37.816Z,18.44
2022-09-15T14:36:22.762Z,18.80
2022-09-15T14:39:11.190Z,18.82
2022-09-15T14:41:40.530Z,18.40
2022-09-15T14:47:27.962Z,17.70
2022-09-15T14:50:15.917Z,18.05
2022-09-15T14:53:20.963Z,18.42
2022-09-15T14:55:59.058Z,18.84
2022-09-15T14:58:37.644Z,18.55
2022-09-15T15:01:07.908Z,18.23
2022-09-15T15:03:55.978Z,17.94
2022-09-15T15:06:28.886Z,18.50
2022-09-15T15:09:03.328Z,17.99
2022-09-15T15:11:33.165Z,18.08
2022-09-15T15:14:00.345Z,18.29
2022-09-15T15:16:29.907Z,18.68
2022-09-15T15:18:57.289Z,18.45
2022-09-15T15:21:45.111Z,18.47
2022-09-15T15:24:14.892Z,18.84
2022-09-15T15:26:43.958Z,18.82
2022-09-15T15:29:34.976Z,18.25
2022-09-15T15:32:06.228Z,18.29
2022-09-15T15:34:33.199Z,18.32
2022-09-15T15:37:29.411Z,18.71
2022-09-15T15:39:58.520Z,19.00
2022-09-15T15:42:26.592Z,18.78
2022-09-15T15:45:25.934Z,19.05
2022-09-15T15:47:53.305Z,19.01
2022-09-15T15:50:25.343Z,18.92
2022-09-15T15:52:52.542Z,18.91
2022-09-15T15:55:21.676Z,19.08
2022-09-15T15:57:58.458Z,18.99
2022-09-15T16:00:48.200Z,18.73
2022-09-15T16:03:16.216Z,18.90
2022-09-15T16:05:45.429Z,19.14
2022-09-15T16:08:26.470Z,19.13
2022-09-15T16:10:54.466Z,19.05
2022-09-15T16:13:22.015Z,18.73
2022-09-15T16:15:49.250Z,18.92
2022-09-15T16:18:15.882Z,19.46
2022-09-15T16:20:42.778Z,19.52
2022-09-15T16:23:17.794Z,19.52
2022-09-15T16:26:03.479Z,19.41
2022-09-15T16:28:30.337Z,19.31
2022-09-15T16:30:57.262Z,19.54
2022-09-15T16:33:24.939Z,19.77
2022-09-15T16:36:08.875Z,19.55
2022-09-15T16:38:36.767Z,19.55
2022-09-15T16:41:06.317Z,19.42
2022-09-15T16:43:32.902Z,19.64
2022-09-15T16:45:59.584Z,19.66
2022-09-15T16:48:27.249Z,19.78
2022-09-15T16:51:19.529Z,19.69
2022-09-15T16:53:40.791Z,19.53
2022-09-15T16:56:10.636Z,19.69
2022-09-15T16:58:37.713Z,19.76
2022-09-15T17:01:04.967Z,19.76
2022-09-15T17:03:31.761Z,19.82
2022-09-15T17:06:00.883Z,19.75
2022-09-15T17:08:32.016Z,19.87
2022-09-15T17:10:59.848Z,19.88
2022-09-15T17:13:30.584Z,19.88
2022-09-15T17:15:58.559Z,19.86
2022-09-15T17:18:25.854Z,19.86
2022-09-15T17:20:53.121Z,19.78
2022-09-15T17:23:46.985Z,19.74
2022-09-15T17:26:23.471Z,19.51
2022-09-15T17:28:52.273Z,19.29
2022-09-15T17:31:21.673Z,18.72
2022-09-15T17:33:49.990Z,18.55
2022-09-15T17:36:17.321Z,18.78
2022-09-15T17:38:45.307Z,19.06
2022-09-15T17:41:17.402Z,19.24
2022-09-15T17:43:44.016Z,19.38
2022-09-15T17:46:10.737Z,19.32
2022-09-15T17:48:38.941Z,19.30
2022-09-15T17:51:12.870Z,19.38
2022-09-15T17:53:39.404Z,19.32
2022-09-15T17:56:06.161Z,19.04
2022-09-15T17:58:33.330Z,18.83
2022-09-15T18:01:00.285Z,19.04
2022-09-15T18:03:35.075Z,19.12
2022-09-15T18:06:08.357Z,19.11
2022-09-15T18:08:38.598Z,19.14
2022-09-15T18:11:06.416Z,19.06
2022-09-15T18:13:34.050Z,18.94
2022-09-15T18:16:12.344Z,18.45
2022-09-15T18:18:40.588Z,18.31
2022-09-15T18:21:21.259Z,18.39
2022-09-15T18:23:47.998Z,18.47
2022-09-15T18:26:14.549Z,18.63
2022-09-15T18:28:41.088Z,18.57
2022-09-15T18:31:08.806Z,18.54
2022-09-15T18:33:35.394Z,18.54
2022-09-15T18:36:02.078Z,18.66
2022-09-15T18:38:28.693Z,18.54
2022-09-15T18:40:56.551Z,18.50
2022-09-15T18:43:26.381Z,18.10
2022-09-15T18:45:58.048Z,18.30
2022-09-15T18:48:24.751Z,18.39
2022-09-15T18:50:51.624Z,18.28
2022-09-15T18:53:18.213Z,18.17
2022-09-15T18:55:44.941Z,17.94
2022-09-15T18:58:11.849Z,17.89
2022-09-15T19:00:38.992Z,17.24
2022-09-15T19:03:09.651Z,17.55
2022-09-15T19:05:37.279Z,17.62
2022-09-15T19:08:04.501Z,17.97
2022-09-15T19:10:31.206Z,17.94
2022-09-15T19:12:57.801Z,17.89
2022-09-15T19:15:24.424Z,17.80
2022-09-15T19:17:51.040Z,17.78
2022-09-15T19:20:18.327Z,17.69
2022-09-15T19:22:45.980Z,17.55
2022-09-15T19:25:13.412Z,17.54
2022-09-15T19:27:41.261Z,17.64
2022-09-15T19:30:10.117Z,17.52
2022-09-15T19:32:37.846Z,16.93
2022-09-15T19:35:05.163Z,17.18
2022-09-15T19:37:31.696Z,17.51
2022-09-15T19:39:58.318Z,17.39
2022-09-15T19:42:24.872Z,17.35
2022-09-15T19:44:51.563Z,17.04
2022-09-15T19:47:18.153Z,16.74
2022-09-15T19:49:44.845Z,16.66
2022-09-15T19:52:12.756Z,16.54
2022-09-15T19:54:39.361Z,16.77
2022-09-15T19:57:06.140Z,16.99
2022-09-15T19:59:32.777Z,17.21
2022-09-15T20:02:00.973Z,16.88
2022-09-15T20:04:28.432Z,16.75
2022-09-15T20:06:55.210Z,17.09
2022-09-15T20:09:22.438Z,16.84
2022-09-15T20:11:49.105Z,17.12
2022-09-15T20:14:16.021Z,17.36
2022-09-15T20:16:42.665Z,17.14
2022-09-15T20:19:09.299Z,16.69
2022-09-15T20:21:49.712Z,16.73
2022-09-15T20:24:17.525Z,16.55
2022-09-15T20:26:44.118Z,16.49
2022-09-15T20:29:10.866Z,16.48
2022-09-15T20:31:37.421Z,16.30
2022-09-15T20:34:03.977Z,16.23
2022-09-15T20:36:33.444Z,16.23
2022-09-15T20:39:03.285Z,15.89
2022-09-15T20:41:32.029Z,15.91
2022-09-15T20:43:59.193Z,16.10
2022-09-15T20:46:26.464Z,15.95
2022-09-15T20:48:53.294Z,15.87
2022-09-15T20:51:25.534Z,15.97
2022-09-15T20:53:54.655Z,15.92
2022-09-15T20:56:25.350Z,16.18
2022-09-15T20:58:53.763Z,16.28
2022-09-15T21:01:22.905Z,15.90
2022-09-15T21:03:49.795Z,15.82
2022-09-15T21:06:24.000Z,15.91
2022-09-15T21:08:51.153Z,15.52
2022-09-15T21:11:20.188Z,15.29
2022-09-15T21:13:48.084Z,15.70
2022-09-15T21:16:20.392Z,15.46
2022-09-15T21:18:47.860Z,15.74
2022-09-15T21:21:16.927Z,15.78
2022-09-15T21:23:46.082Z,16.20
2022-09-15T21:26:21.068Z,16.56
2022-09-15T21:28:48.716Z,16.48
2022-09-15T21:31:26.957Z,16.57
2022-09-15T21:33:54.412Z,16.52
2022-09-15T21:36:26.887Z,16.09
2022-09-15T21:38:56.216Z,16.48
2022-09-15T21:41:25.994Z,16.36
2022-09-15T21:43:54.837Z,15.96
2022-09-15T21:46:24.173Z,15.83
2022-09-15T21:48:51.715Z,15.88
2022-09-15T21:51:24.531Z,15.90
2022-09-15T21:53:56.600Z,15.61
2022-09-15T21:56:23.772Z,15.70
2022-09-15T21:58:50.535Z,16.11
2022-09-15T22:01:21.500Z,16.29
2022-09-15T22:03:51.454Z,16.01
2022-09-15T22:06:19.902Z,16.13
2022-09-15T22:08:46.830Z,16.09
2022-09-15T22:11:13.536Z,15.79
2022-09-15T22:13:42.094Z,15.54
2022-09-15T22:16:12.653Z,15.11
2022-09-15T22:18:40.484Z,14.98
2022-09-15T22:21:13.372Z,15.09
2022-09-15T22:23:40.114Z,15.26
2022-09-15T22:26:12.771Z,15.68
2022-09-15T22:28:39.496Z,15.87
2022-09-15T22:31:08.547Z,16.12
2022-09-15T22:33:35.646Z,16.17
2022-09-15T22:36:02.565Z,16.17
2022-09-15T22:38:30.050Z,16.15
2022-09-15T22:41:03.892Z,16.15
2022-09-15T22:43:30.666Z,16.10
2022-09-15T22:45:57.378Z,16.12
2022-09-15T22:48:24.182Z,16.07
2022-09-15T22:50:50.815Z,16.04
2022-09-15T22:53:17.405Z,15.95
2022-09-15T22:55:44.014Z,15.95
2022-09-15T22:58:10.675Z,15.76
2022-09-15T23:00:38.292Z,15.49
2022-09-15T23:03:05.933Z,15.63
2022-09-15T23:05:33.954Z,15.66
2022-09-15T23:08:00.523Z,15.34
2022-09-15T23:10:27.357Z,15.60
2022-09-15T23:12:54.420Z,15.87
2022-09-15T23:15:20.995Z,16.03
2022-09-15T23:17:47.923Z,16.00
2022-09-15T23:20:14.490Z,15.97
2022-09-15T23:22:41.105Z,15.98
2022-09-15T23:25:08.162Z,15.62
2022-09-15T23:27:34.698Z,15.65
2022-09-15T23:30:01.233Z,15.66
2022-09-15T23:32:27.855Z,15.82
2022-09-15T23:34:54.843Z,15.73
2022-09-15T23:37:21.413Z,15.32
2022-09-15T23:39:48.064Z,15.42
2022-09-15T23:42:18.755Z,15.34
2022-09-15T23:44:45.807Z,15.24
2022-09-15T23:47:12.403Z,15.34
2022-09-15T23:49:38.954Z,15.09
2022-09-15T23:52:05.497Z,14.84
2022-09-15T23:54:32.050Z,14.57
2022-09-15T23:56:58.747Z,14.91
2022-09-15T23:59:25.324Z,14.90
